Time;durP1;ratioP1;P1;durP2;ratioP2;P2;SDS_P1;SDS_P2;PMS_P1;PMS_P2;Temp;Humidity;BMP_temperature;BMP_pressure;BME280_temperature;BME280_humidity;BME280_pressure;Samples;Min_cycle;Max_cycle;Signal;HPM_P1;HPM_P2
2022/08/11 00:01:06;;;;;;;;;;;21.80;99.90;;;;;;5020396;28;19925;-69
2022/08/11 00:03:33;;;;;;;;;;;21.80;99.90;;;;;;5013043;28;19932;-69
2022/08/11 00:06:01;;;;;;;;;;;21.70;99.90;;;;;;5027187;28;19925;-69
2022/08/11 00:08:30;;;;;;;;;;;21.60;99.90;;;;;;5037088;28;19933;-69
2022/08/11 00:10:58;;;;;;;;;;;21.60;99.90;;;;;;5022427;28;19982;-69
2022/08/11 00:13:33;;;;;;;;;;;21.50;99.90;;;;;;5015595;28;19929;-69
2022/08/11 00:16:00;;;;;;;;;;;21.40;99.90;;;;;;5021831;28;20160;-69
2022/08/11 00:18:27;;;;;;;;;;;21.40;99.90;;;;;;5018980;28;19961;-69
2022/08/11 00:20:58;;;;;;;;;;;21.30;99.90;;;;;;5012892;28;19929;-69
2022/08/11 00:23:25;;;;;;;;;;;21.30;99.90;;;;;;5017654;28;19925;-69
2022/08/11 00:25:53;;;;;;;;;;;21.30;99.90;;;;;;5019734;28;19932;-69
2022/08/11 00:28:23;;;;;;;;;;;21.20;99.90;;;;;;5018384;28;20355;-69
2022/08/11 00:30:53;;;;;;;;;;;21.10;99.90;;;;;;5016392;28;20458;-69
2022/08/11 00:33:20;;;;;;;;;;;21.10;99.90;;;;;;5022248;28;20431;-69
2022/08/11 00:35:49;;;;;;;;;;;21.10;99.90;;;;;;5019268;28;19925;-69
2022/08/11 00:38:16;;;;;;;;;;;21.00;99.90;;;;;;5017474;28;19925;-69
2022/08/11 00:40:44;;;;;;;;;;;21.00;99.90;;;;;;5020918;28;19999;-69
2022/08/11 00:43:18;;;;;;;;;;;20.90;99.90;;;;;;5014237;28;20347;-69
2022/08/11 00:45:51;;;;;;;;;;;20.80;99.90;;;;;;5011971;28;19929;-69
2022/08/11 00:48:26;;;;;;;;;;;20.70;99.90;;;;;;5022611;28;19999;-69
2022/08/11 00:51:00;;;;;;;;;;;20.70;99.90;;;;;;5015831;28;20308;-69
2022/08/11 00:53:34;;;;;;;;;;;20.70;99.90;;;;;;5020740;28;19929;-69
2022/08/11 00:56:18;;;;;;;;;;;20.60;99.90;;;;;;5026149;28;19925;-69
2022/08/11 00:58:59;;;;;;;;;;;20.50;99.90;;;;;;5036182;28;19936;-69
2022/08/11 01:01:30;;;;;;;;;;;20.50;99.90;;;;;;5028501;28;19937;-69
2022/08/11 01:04:11;;;;;;;;;;;20.40;99.90;;;;;;5023791;28;20141;-69
2022/08/11 01:06:48;;;;;;;;;;;20.40;99.90;;;;;;5017985;28;19929;-69
2022/08/11 01:09:24;;;;;;;;;;;20.30;99.90;;;;;;5038426;28;19925;-68
2022/08/11 01:12:12;;;;;;;;;;;20.20;99.90;;;;;;5047326;28;19968;-69
2022/08/11 01:14:53;;;;;;;;;;;20.10;99.90;;;;;;5019879;28;19933;-69
2022/08/11 01:17:49;;;;;;;;;;;20.00;99.90;;;;;;5026121;28;19925;-69
2022/08/11 01:20:27;;;;;;;;;;;19.90;99.90;;;;;;5037939;28;19936;-69
2022/08/11 01:23:03;;;;;;;;;;;19.80;99.90;;;;;;5029851;28;19925;-69
2022/08/11 01:25:54;;;;;;;;;;;19.80;99.90;;;;;;5028320;28;19975;-69
2022/08/11 01:28:30;;;;;;;;;;;19.70;99.90;;;;;;5005102;28;19925;-69
2022/08/11 01:31:15;;;;;;;;;;;19.60;99.90;;;;;;5025553;28;20484;-69
2022/08/11 01:34:01;;;;;;;;;;;19.50;99.90;;;;;;5028418;28;19925;-69
2022/08/11 01:36:42;;;;;;;;;;;19.40;99.90;;;;;;5028228;28;19936;-68
2022/08/11 01:39:20;;;;;;;;;;;19.40;99.90;;;;;;5026495;28;19933;-69
2022/08/11 01:45:06;;;;;;;;;;;19.30;99.90;;;;;;5043532;28;19921;-69
2022/08/11 01:47:53;;;;;;;;;;;19.30;99.90;;;;;;5043840;28;19932;-69
2022/08/11 01:50:31;;;;;;;;;;;19.30;99.90;;;;;;5034255;28;20309;-69
2022/08/11 01:53:04;;;;;;;;;;;19.20;99.90;;;;;;5035851;28;19929;-69
2022/08/11 01:55:34;;;;;;;;;;;19.20;99.90;;;;;;5022853;28;19928;-69
2022/08/11 01:58:05;;;;;;;;;;;19.20;99.90;;;;;;5025398;28;19925;-69
2022/08/11 02:00:35;;;;;;;;;;;19.10;99.90;;;;;;5014214;28;19925;-69
2022/08/11 02:03:08;;;;;;;;;;;19.10;99.90;;;;;;5022625;28;19925;-69
2022/08/11 02:05:42;;;;;;;;;;;19.00;99.90;;;;;;5017746;28;20348;-69
2022/08/11 02:08:14;;;;;;;;;;;19.00;99.90;;;;;;5020122;28;19940;-69
2022/08/11 02:13:34;;;;;;;;;;;18.90;99.90;;;;;;5020248;28;19936;-69
2022/08/11 02:16:04;;;;;;;;;;;18.90;99.90;;;;;;5023448;28;19971;-69
2022/08/11 02:24:04;;;;;;;;;;;18.80;99.90;;;;;;5021777;28;19921;-69
2022/08/11 02:26:35;;;;;;;;;;;18.70;99.90;;;;;;5023359;28;19929;-69
2022/08/11 02:29:09;;;;;;;;;;;18.60;99.90;;;;;;5024694;28;20300;-69
2022/08/11 02:34:38;;;;;;;;;;;18.50;99.90;;;;;;5023979;28;19921;-69
2022/08/11 02:37:14;;;;;;;;;;;18.50;99.90;;;;;;5022709;28;19929;-69
2022/08/11 02:39:46;;;;;;;;;;;18.40;99.90;;;;;;5031965;28;19925;-69
2022/08/11 02:42:23;;;;;;;;;;;18.30;99.90;;;;;;5021102;28;19971;-69
2022/08/11 02:44:55;;;;;;;;;;;18.20;99.90;;;;;;5026699;28;19925;-69
2022/08/11 02:47:31;;;;;;;;;;;18.20;99.90;;;;;;5022745;28;19947;-69
2022/08/11 02:50:00;;;;;;;;;;;18.10;99.90;;;;;;5029028;28;20393;-69
2022/08/11 02:52:32;;;;;;;;;;;18.00;99.90;;;;;;5011371;28;19975;-69
2022/08/11 02:55:10;;;;;;;;;;;18.00;99.90;;;;;;5028645;28;19991;-69
2022/08/11 02:57:42;;;;;;;;;;;17.90;99.90;;;;;;5014565;28;19928;-69
2022/08/11 03:00:10;;;;;;;;;;;17.80;99.90;;;;;;5021705;28;19925;-69
2022/08/11 03:02:47;;;;;;;;;;;17.80;99.90;;;;;;5020247;28;20214;-69
2022/08/11 03:05:31;;;;;;;;;;;17.80;99.90;;;;;;5021796;28;19929;-69
2022/08/11 03:08:05;;;;;;;;;;;17.80;99.90;;;;;;5016659;28;19932;-69
2022/08/11 03:10:34;;;;;;;;;;;17.70;99.90;;;;;;5029417;28;19925;-69
2022/08/11 03:18:45;;;;;;;;;;;17.60;99.90;;;;;;5010080;28;19929;-68
2022/08/11 03:21:15;;;;;;;;;;;17.60;99.90;;;;;;5026132;28;19932;-69
2022/08/11 03:23:50;;;;;;;;;;;17.50;99.90;;;;;;5019532;28;19925;-69
2022/08/11 03:26:23;;;;;;;;;;;17.50;99.90;;;;;;5016463;28;19929;-69
2022/08/11 03:28:56;;;;;;;;;;;17.50;99.90;;;;;;5028358;28;19968;-67
2022/08/11 03:31:24;;;;;;;;;;;17.40;99.90;;;;;;5023578;28;19929;-68
2022/08/11 03:34:03;;;;;;;;;;;17.40;99.90;;;;;;5023748;28;19925;-69
2022/08/11 03:36:45;;;;;;;;;;;17.40;99.90;;;;;;5017658;28;19929;-69
2022/08/11 03:39:17;;;;;;;;;;;17.50;99.90;;;;;;5020889;28;20277;-69
2022/08/11 03:41:51;;;;;;;;;;;17.50;99.90;;;;;;5013378;28;19929;-68
2022/08/11 03:44:28;;;;;;;;;;;17.50;99.90;;;;;;5023958;28;19928;-69
2022/08/11 03:47:06;;;;;;;;;;;17.50;99.90;;;;;;5018270;28;19925;-69
2022/08/11 03:49:38;;;;;;;;;;;17.40;99.90;;;;;;5031621;28;19932;-69
2022/08/11 03:52:11;;;;;;;;;;;17.40;99.90;;;;;;5019568;28;19925;-69
2022/08/11 03:54:43;;;;;;;;;;;17.40;99.90;;;;;;5018203;28;19925;-69
2022/08/11 03:57:35;;;;;;;;;;;17.40;99.90;;;;;;5021111;28;19937;-69
2022/08/11 04:00:19;;;;;;;;;;;17.30;99.90;;;;;;5013868;28;20031;-69
2022/08/11 04:03:11;;;;;;;;;;;17.30;99.90;;;;;;5015996;28;19925;-69
2022/08/11 04:05:56;;;;;;;;;;;17.20;99.90;;;;;;5033226;28;19929;-69
2022/08/11 04:08:37;;;;;;;;;;;17.20;99.90;;;;;;5013912;28;19925;-69
2022/08/11 04:11:25;;;;;;;;;;;17.20;99.90;;;;;;5021877;28;19929;-69
2022/08/11 04:17:08;;;;;;;;;;;17.20;99.90;;;;;;5020524;28;20004;-69
2022/08/11 04:19:52;;;;;;;;;;;17.10;99.90;;;;;;5034184;28;19924;-69
2022/08/11 04:22:38;;;;;;;;;;;17.10;99.90;;;;;;5042842;28;20446;-68
2022/08/11 04:25:19;;;;;;;;;;;17.10;99.90;;;;;;5022061;28;20293;-68
2022/08/11 04:28:09;;;;;;;;;;;17.00;99.90;;;;;;5012568;28;19925;-68
2022/08/11 04:30:45;;;;;;;;;;;17.00;99.90;;;;;;5015827;28;19931;-68
2022/08/11 04:33:35;;;;;;;;;;;17.00;99.90;;;;;;5036174;28;19925;-68
2022/08/11 04:36:08;;;;;;;;;;;17.00;99.90;;;;;;5037833;28;19925;-68
2022/08/11 04:38:44;;;;;;;;;;;17.10;99.90;;;;;;5018054;28;19925;-68
2022/08/11 04:41:31;;;;;;;;;;;17.00;99.90;;;;;;5022452;28;20059;-68
2022/08/11 04:44:16;;;;;;;;;;;17.10;99.90;;;;;;5026391;28;20032;-68
2022/08/11 04:47:07;;;;;;;;;;;17.10;99.90;;;;;;5017987;28;19921;-68
2022/08/11 05:01:43;;;;;;;;;;;17.10;99.90;;;;;;5104540;28;20341;-66
2022/08/11 05:07:24;;;;;;;;;;;17.20;99.90;;;;;;5107964;28;19919;-67
2022/08/11 05:10:09;;;;;;;;;;;17.20;99.90;;;;;;5104514;28;19924;-68
2022/08/11 05:12:41;;;;;;;;;;;17.30;99.90;;;;;;5101834;28;19959;-68
2022/08/11 05:34:53;;;;;;;;;;;18.00;99.90;;;;;;5105048;28;19924;-68
2022/08/11 05:37:22;;;;;;;;;;;18.10;99.90;;;;;;5109362;28;19959;-68
2022/08/11 05:56:32;;;;;;;;;;;19.20;99.90;;;;;;5123749;27;19920;-68
2022/08/11 05:58:59;;;;;;;;;;;19.30;99.90;;;;;;5135036;27;19927;-68
2022/08/11 06:01:29;;;;;;;;;;;19.50;99.90;;;;;;5135238;27;19924;-68
2022/08/11 06:04:15;;;;;;;;;;;19.60;99.90;;;;;;5117730;27;19932;-68
2022/08/11 06:06:51;;;;;;;;;;;19.70;99.90;;;;;;5111165;27;19923;-68
2022/08/11 06:09:23;;;;;;;;;;;19.80;99.90;;;;;;5119350;27;19955;-68
2022/08/11 06:11:51;;;;;;;;;;;19.90;99.90;;;;;;5114212;27;19967;-68
2022/08/11 06:14:18;;;;;;;;;;;20.10;99.90;;;;;;5121401;27;19989;-68
2022/08/11 06:16:48;;;;;;;;;;;20.20;99.90;;;;;;5114947;27;19931;-68
2022/08/11 06:19:15;;;;;;;;;;;20.30;99.90;;;;;;5118683;27;19924;-68
2022/08/11 06:21:45;;;;;;;;;;;20.40;99.90;;;;;;5117136;27;19924;-68
2022/08/11 06:24:12;;;;;;;;;;;20.60;99.90;;;;;;5126149;27;19931;-68
2022/08/11 06:26:40;;;;;;;;;;;20.70;99.90;;;;;;5119909;27;19932;-68
2022/08/11 06:29:07;;;;;;;;;;;20.80;99.90;;;;;;5117781;27;20296;-68
2022/08/11 06:31:34;;;;;;;;;;;20.80;99.90;;;;;;5120087;27;19996;-68
2022/08/11 06:34:09;;;;;;;;;;;21.00;99.90;;;;;;5110427;27;19935;-68
2022/08/11 06:36:40;;;;;;;;;;;21.00;99.90;;;;;;5110917;27;19931;-68
2022/08/11 06:39:13;;;;;;;;;;;21.10;99.90;;;;;;5125587;27;19924;-68
2022/08/11 06:41:44;;;;;;;;;;;21.20;99.90;;;;;;5119579;27;20306;-68
2022/08/11 06:44:22;;;;;;;;;;;21.30;99.90;;;;;;5115751;27;20307;-68
2022/08/11 06:46:50;;;;;;;;;;;21.30;99.90;;;;;;5118800;27;19923;-68
2022/08/11 06:52:06;;;;;;;;;;;21.50;99.90;;;;;;5114385;27;20497;-68
2022/08/11 06:54:33;;;;;;;;;;;21.50;99.90;;;;;;5122063;27;19934;-68
2022/08/11 07:02:32;;;;;;;;;;;21.70;99.90;;;;;;5116364;27;19935;-68
2022/08/11 07:05:03;;;;;;;;;;;21.80;99.90;;;;;;5111995;27;19967;-68
2022/08/11 07:16:27;;;;;;;;;;;22.00;99.90;;;;;;5049061;28;19927;-68
2022/08/11 07:30:00;;;;;;;;;;;22.20;99.90;;;;;;5120472;27;19927;-68
2022/08/11 07:32:28;;;;;;;;;;;22.20;99.90;;;;;;5117587;27;19930;-68
2022/08/11 07:34:57;;;;;;;;;;;22.30;99.90;;;;;;5121233;27;19928;-68
2022/08/11 07:37:27;;;;;;;;;;;22.40;99.90;;;;;;5113547;27;19924;-68
2022/08/11 07:39:54;;;;;;;;;;;22.50;99.90;;;;;;5121550;27;19928;-68
2022/08/11 07:42:26;;;;;;;;;;;22.60;99.90;;;;;;5116586;27;20349;-68
2022/08/11 07:53:09;;;;;;;;;;;23.00;99.90;;;;;;5119458;27;19966;-70
2022/08/11 07:55:37;;;;;;;;;;;23.10;99.90;;;;;;5124464;27;19969;-70
2022/08/11 08:20:03;;;;;;;;;;;24.20;99.90;;;;;;5116161;27;19930;-69
2022/08/11 08:22:30;;;;;;;;;;;24.30;99.90;;;;;;5116035;27;20010;-69
2022/08/11 08:24:59;;;;;;;;;;;24.40;99.90;;;;;;5114797;27;19935;-69
2022/08/11 08:27:26;;;;;;;;;;;24.40;99.90;;;;;;5116163;27;20327;-69
2022/08/11 08:32:39;;;;;;;;;;;24.60;99.90;;;;;;5111270;27;19923;-69
2022/08/11 08:35:06;;;;;;;;;;;24.70;99.90;;;;;;5107945;27;19924;-69
2022/08/11 08:37:33;;;;;;;;;;;24.90;99.90;;;;;;5114599;27;19973;-69
2022/08/11 08:40:02;;;;;;;;;;;25.00;99.90;;;;;;5118245;27;19931;-69
2022/08/11 08:42:29;;;;;;;;;;;25.10;99.90;;;;;;5115316;28;19924;-69
2022/08/11 08:44:58;;;;;;;;;;;25.30;99.90;;;;;;5114765;27;19930;-69
2022/08/11 08:47:26;;;;;;;;;;;25.40;99.90;;;;;;5114889;27;20444;-69
2022/08/11 08:49:56;;;;;;;;;;;25.40;99.90;;;;;;5123221;28;20018;-69
2022/08/11 08:52:25;;;;;;;;;;;25.60;99.90;;;;;;5113732;28;19937;-69
2022/08/11 08:54:54;;;;;;;;;;;25.70;99.90;;;;;;5109887;28;20307;-69
2022/08/11 08:57:23;;;;;;;;;;;25.70;99.90;;;;;;5119781;28;19930;-69
2022/08/11 08:59:51;;;;;;;;;;;25.80;99.90;;;;;;5119527;28;20456;-69
2022/08/11 09:02:19;;;;;;;;;;;25.80;99.90;;;;;;5106357;28;19923;-69
2022/08/11 09:04:46;;;;;;;;;;;26.00;99.90;;;;;;5112305;28;19928;-69
2022/08/11 09:07:15;;;;;;;;;;;26.20;99.90;;;;;;5119593;28;19945;-69
2022/08/11 09:09:42;;;;;;;;;;;26.30;99.90;;;;;;5116261;28;20022;-70
2022/08/11 09:12:10;;;;;;;;;;;26.30;99.90;;;;;;5118356;28;19930;-69
2022/08/11 09:17:26;;;;;;;;;;;26.50;99.90;;;;;;5117777;28;19954;-69
2022/08/11 09:19:57;;;;;;;;;;;26.70;99.90;;;;;;5113656;28;19924;-69
2022/08/11 09:27:55;;;;;;;;;;;27.10;99.90;;;;;;5113790;28;20512;-69
2022/08/11 09:30:24;;;;;;;;;;;27.20;99.70;;;;;;5120769;28;19924;-69
2022/08/11 09:32:59;;;;;;;;;;;27.30;99.60;;;;;;5121220;28;19962;-69
2022/08/11 09:35:26;;;;;;;;;;;27.40;99.70;;;;;;5118780;28;19939;-70
2022/08/11 09:40:39;;;;;;;;;;;27.70;99.10;;;;;;5118228;27;19944;-70
2022/08/11 09:45:53;;;;;;;;;;;27.70;98.00;;;;;;5117195;27;19927;-70
2022/08/11 09:48:20;;;;;;;;;;;27.80;97.80;;;;;;5117261;27;19923;-69
2022/08/11 09:50:48;;;;;;;;;;;27.80;98.00;;;;;;5115546;27;20336;-70
2022/08/11 09:53:16;;;;;;;;;;;27.90;97.70;;;;;;5118562;27;20386;-69
2022/08/11 09:55:43;;;;;;;;;;;28.10;97.20;;;;;;5129151;27;19928;-70
2022/08/11 09:58:12;;;;;;;;;;;28.20;97.10;;;;;;5116890;27;20020;-70
2022/08/11 10:00:39;;;;;;;;;;;28.30;96.30;;;;;;5116932;27;19974;-70
2022/08/11 10:03:11;;;;;;;;;;;28.40;96.40;;;;;;5124654;27;20022;-70
2022/08/11 10:08:23;;;;;;;;;;;28.60;95.50;;;;;;5122137;27;19942;-70
2022/08/11 10:10:50;;;;;;;;;;;28.60;95.30;;;;;;5115528;27;19928;-70
2022/08/11 10:13:18;;;;;;;;;;;28.70;94.10;;;;;;5125295;27;19927;-70
2022/08/11 10:15:45;;;;;;;;;;;28.80;93.90;;;;;;5119619;27;19942;-70
2022/08/11 10:21:02;;;;;;;;;;;29.10;92.70;;;;;;5121451;27;20395;-69
2022/08/11 10:33:58;;;;;;;;;;;28.90;92.10;;;;;;5116190;27;19969;-69
2022/08/11 10:34:36;;;;;;;;;;;29.30;93.00;;;;;;5122911;27;20014;-69
2022/08/11 10:37:02;;;;;;;;;;;29.30;93.20;;;;;;5121995;27;19931;-70
2022/08/11 10:39:29;;;;;;;;;;;29.30;92.70;;;;;;5116106;27;19927;-70
2022/08/11 10:44:42;;;;;;;;;;;29.40;93.00;;;;;;5111380;27;19973;-70
2022/08/11 11:00:55;;;;;;;;;;;30.20;91.70;;;;;;5037556;28;19924;-70
2022/08/11 11:03:22;;;;;;;;;;;30.40;91.00;;;;;;5065797;27;20390;-70
2022/08/11 11:05:52;;;;;;;;;;;30.40;90.70;;;;;;5122443;27;19931;-70
2022/08/11 11:11:08;;;;;;;;;;;30.50;90.10;;;;;;5110903;27;19920;-70
2022/08/11 11:19:07;;;;;;;;;;;31.10;89.90;;;;;;5119663;27;19927;-70
2022/08/11 11:21:37;;;;;;;;;;;31.10;89.20;;;;;;5114030;27;19963;-70
2022/08/11 11:24:10;;;;;;;;;;;31.30;89.10;;;;;;5117131;27;20334;-70
2022/08/11 11:26:39;;;;;;;;;;;31.60;89.60;;;;;;5121530;27;19923;-70
2022/08/11 11:29:30;;;;;;;;;;;31.50;88.00;;;;;;5119691;27;20353;-69
2022/08/11 11:32:09;;;;;;;;;;;31.80;88.30;;;;;;5080955;27;19924;-70
2022/08/11 11:34:46;;;;;;;;;;;32.10;87.20;;;;;;5107636;27;20376;-70
2022/08/11 11:37:16;;;;;;;;;;;32.00;87.20;;;;;;5108915;27;19923;-70
2022/08/11 11:39:43;;;;;;;;;;;32.90;86.90;;;;;;5122659;27;19923;-70
2022/08/11 11:42:10;;;;;;;;;;;35.00;85.60;;;;;;5109489;27;19928;-70
2022/08/11 11:44:38;;;;;;;;;;;37.20;84.50;;;;;;5120778;27;19931;-70
2022/08/11 11:47:05;;;;;;;;;;;37.70;82.10;;;;;;5120553;27;19924;-70
2022/08/11 11:49:34;;;;;;;;;;;39.40;80.70;;;;;;5108197;27;19928;-70
2022/08/11 11:52:01;;;;;;;;;;;39.30;79.60;;;;;;5114931;27;19923;-70
2022/08/11 11:54:32;;;;;;;;;;;40.60;78.60;;;;;;5116106;27;19923;-70
2022/08/11 12:01:14;;;;;;;;;;;41.80;77.90;;;;;;5121918;27;20010;-70
2022/08/11 12:02:36;;;;;;;;;;;42.40;75.00;;;;;;5109976;27;19920;-70
2022/08/11 12:05:03;;;;;;;;;;;43.10;75.10;;;;;;5116432;27;19928;-70
2022/08/11 12:10:16;;;;;;;;;;;42.20;74.70;;;;;;5121692;27;19920;-71
2022/08/11 12:15:27;;;;;;;;;;;43.70;73.30;;;;;;5121001;27;19920;-71
2022/08/11 12:17:55;;;;;;;;;;;44.90;72.40;;;;;;5119374;27;20395;-71
2022/08/11 12:20:23;;;;;;;;;;;44.70;72.80;;;;;;5115410;27;20031;-71
2022/08/11 12:28:21;;;;;;;;;;;44.60;71.50;;;;;;5119118;27;19923;-71
2022/08/11 12:30:48;;;;;;;;;;;44.40;71.90;;;;;;5113523;27;19930;-71
2022/08/11 12:33:15;;;;;;;;;;;45.20;71.40;;;;;;5115224;27;19927;-71
2022/08/11 12:35:43;;;;;;;;;;;44.30;70.00;;;;;;5117249;27;19976;-71
2022/08/11 12:38:10;;;;;;;;;;;44.00;70.50;;;;;;5115195;27;19945;-71
2022/08/11 12:46:09;;;;;;;;;;;44.80;70.40;;;;;;5115867;27;19920;-71
2022/08/11 12:54:10;;;;;;;;;;;44.30;70.20;;;;;;5108702;28;19924;-71
2022/08/11 13:04:58;;;;;;;;;;;44.70;69.00;;;;;;5106982;28;19919;-69
2022/08/11 13:07:25;;;;;;;;;;;44.60;68.50;;;;;;5102735;28;19932;-70
2022/08/11 13:09:53;;;;;;;;;;;44.50;68.40;;;;;;5119051;28;20023;-69
2022/08/11 13:15:07;;;;;;;;;;;44.60;68.40;;;;;;5110135;27;19923;-69
2022/08/11 13:17:34;;;;;;;;;;;45.00;69.70;;;;;;5110026;27;19924;-69
2022/08/11 13:20:01;;;;;;;;;;;46.00;68.40;;;;;;5107963;27;19924;-69
2022/08/11 13:22:28;;;;;;;;;;;45.90;68.00;;;;;;5113828;27;20391;-69
2022/08/11 13:24:57;;;;;;;;;;;45.30;68.20;;;;;;5113313;27;19927;-69
2022/08/11 13:27:26;;;;;;;;;;;44.70;68.00;;;;;;5118416;27;19924;-69
2022/08/11 13:31:09;;;;;;;;;;;44.40;67.90;;;;;;5112500;27;19924;-69
2022/08/11 13:32:41;;;;;;;;;;;44.40;68.30;;;;;;5115486;27;19931;-70
2022/08/11 13:35:09;;;;;;;;;;;45.20;67.40;;;;;;5109050;27;19924;-70
2022/08/11 13:37:36;;;;;;;;;;;44.20;67.40;;;;;;5110982;27;19924;-70
2022/08/11 13:40:03;;;;;;;;;;;44.00;68.00;;;;;;5112839;27;19931;-70
2022/08/11 13:42:32;;;;;;;;;;;43.50;67.30;;;;;;5108782;27;19924;-70
2022/08/11 13:44:58;;;;;;;;;;;44.10;68.50;;;;;;5107497;27;19924;-69
2022/08/11 13:47:25;;;;;;;;;;;44.80;67.30;;;;;;5117154;27;19932;-70
2022/08/11 13:49:52;;;;;;;;;;;45.20;67.90;;;;;;5107306;27;19931;-70
2022/08/11 13:52:20;;;;;;;;;;;45.50;66.70;;;;;;5115685;27;19931;-69
2022/08/11 13:54:47;;;;;;;;;;;44.90;67.00;;;;;;5110059;27;19997;-70
2022/08/11 13:57:17;;;;;;;;;;;45.20;67.40;;;;;;5111839;27;20010;-70
2022/08/11 13:59:46;;;;;;;;;;;45.40;67.00;;;;;;5113362;27;20299;-70
2022/08/11 14:02:14;;;;;;;;;;;45.50;67.20;;;;;;5105748;27;19923;-70
2022/08/11 14:04:42;;;;;;;;;;;46.10;67.40;;;;;;5110891;27;19930;-70
2022/08/11 14:07:13;;;;;;;;;;;46.70;66.20;;;;;;5109964;28;19928;-70
2022/08/11 14:09:42;;;;;;;;;;;45.90;65.50;;;;;;5114625;27;20013;-69
2022/08/11 14:15:00;;;;;;;;;;;46.00;65.70;;;;;;5117133;27;20394;-69
2022/08/11 14:17:29;;;;;;;;;;;45.90;65.90;;;;;;5106931;27;19955;-69
2022/08/11 14:19:58;;;;;;;;;;;46.30;65.40;;;;;;5110894;27;19923;-69
2022/08/11 14:22:24;;;;;;;;;;;45.80;65.10;;;;;;5108926;27;19974;-69
2022/08/11 14:24:51;;;;;;;;;;;45.70;65.40;;;;;;5112868;27;20006;-69
2022/08/11 14:27:21;;;;;;;;;;;44.70;65.10;;;;;;5112979;27;19924;-69
2022/08/11 14:29:47;;;;;;;;;;;44.30;65.60;;;;;;5106744;27;19924;-69
2022/08/11 14:32:16;;;;;;;;;;;44.10;65.70;;;;;;5113166;27;19935;-69
2022/08/11 14:34:43;;;;;;;;;;;43.80;65.60;;;;;;5102998;27;19924;-69
2022/08/11 14:37:11;;;;;;;;;;;43.60;65.40;;;;;;5112543;27;19924;-69
2022/08/11 14:39:41;;;;;;;;;;;43.90;66.10;;;;;;5115060;27;19923;-69
2022/08/11 14:47:47;;;;;;;;;;;46.20;65.50;;;;;;5071551;28;19931;-69
2022/08/11 14:50:16;;;;;;;;;;;46.40;64.30;;;;;;5106471;27;19949;-69
2022/08/11 14:52:45;;;;;;;;;;;46.10;63.70;;;;;;5112809;27;19978;-69
2022/08/11 14:57:57;;;;;;;;;;;46.10;64.10;;;;;;5112368;27;20014;-69
2022/08/11 15:00:24;;;;;;;;;;;46.40;63.40;;;;;;5109269;27;19931;-69
2022/08/11 15:03:10;;;;;;;;;;;45.70;63.10;;;;;;5109611;27;19924;-69
2022/08/11 15:05:39;;;;;;;;;;;44.50;63.50;;;;;;5113864;27;20376;-69
2022/08/11 15:08:06;;;;;;;;;;;44.10;64.20;;;;;;5114434;27;20391;-69
2022/08/11 15:10:33;;;;;;;;;;;44.00;64.00;;;;;;5111541;27;19924;-69
2022/08/11 15:13:00;;;;;;;;;;;44.50;64.40;;;;;;5104765;28;19959;-69
2022/08/11 15:18:15;;;;;;;;;;;45.40;63.10;;;;;;5105645;27;20319;-69
2022/08/11 15:26:13;;;;;;;;;;;45.50;63.50;;;;;;5115438;27;20386;-69
2022/08/11 15:48:07;;;;;;;;;;;43.40;63.90;;;;;;5090088;27;19923;-69
2022/08/11 15:50:39;;;;;;;;;;;42.90;64.50;;;;;;5116072;27;19923;-69
2022/08/11 15:53:08;;;;;;;;;;;42.50;64.90;;;;;;5120408;27;19932;-69
2022/08/11 15:55:35;;;;;;;;;;;41.80;65.00;;;;;;5109492;27;19928;-69
2022/08/11 16:06:22;;;;;;;;;;;41.40;65.60;;;;;;5119113;27;20268;-69
2022/08/11 16:08:49;;;;;;;;;;;41.70;64.80;;;;;;5125183;27;19928;-69
2022/08/11 16:11:16;;;;;;;;;;;41.70;64.90;;;;;;5114541;27;19923;-69
2022/08/11 16:16:28;;;;;;;;;;;42.20;65.10;;;;;;5116298;27;20075;-69
2022/08/11 16:18:56;;;;;;;;;;;42.40;64.80;;;;;;5119958;27;19928;-69
2022/08/11 16:21:27;;;;;;;;;;;42.00;64.20;;;;;;5115339;27;20001;-69
2022/08/11 16:23:55;;;;;;;;;;;41.60;64.80;;;;;;5118600;27;19927;-69
2022/08/11 16:26:23;;;;;;;;;;;41.90;65.00;;;;;;5121071;27;19945;-69
2022/08/11 16:28:50;;;;;;;;;;;42.60;64.50;;;;;;5117871;27;20360;-68
2022/08/11 16:31:17;;;;;;;;;;;43.10;64.50;;;;;;5106559;28;19931;-69
2022/08/11 16:33:45;;;;;;;;;;;43.50;64.90;;;;;;5123355;27;19924;-69
2022/08/11 16:38:59;;;;;;;;;;;44.30;63.70;;;;;;5085737;28;19967;-69
2022/08/11 16:47:00;;;;;;;;;;;45.00;63.00;;;;;;5086439;28;20304;-70
2022/08/11 16:49:28;;;;;;;;;;;45.10;63.80;;;;;;5089146;28;19924;-69
2022/08/11 16:51:55;;;;;;;;;;;44.90;63.80;;;;;;5089561;28;20013;-70
2022/08/11 16:54:23;;;;;;;;;;;44.10;64.00;;;;;;5089491;28;20454;-67
2022/08/11 16:56:50;;;;;;;;;;;44.00;63.90;;;;;;5087811;28;20347;-69
2022/08/11 16:59:18;;;;;;;;;;;44.20;64.00;;;;;;5089081;28;19967;-69
2022/08/11 17:01:47;;;;;;;;;;;44.40;63.60;;;;;;5089576;28;19927;-70
2022/08/11 17:18:42;;;;;;;;;;;43.90;63.80;;;;;;5081103;28;19924;-69
2022/08/11 17:21:14;;;;;;;;;;;43.50;63.50;;;;;;5084515;28;19935;-68
2022/08/11 17:23:49;;;;;;;;;;;43.30;63.30;;;;;;5088018;28;19963;-68
2022/08/11 17:26:18;;;;;;;;;;;43.30;63.30;;;;;;5084207;28;20433;-69
2022/08/11 17:28:48;;;;;;;;;;;43.40;63.80;;;;;;5089464;28;19967;-68
2022/08/11 17:36:45;;;;;;;;;;;42.70;64.00;;;;;;5086580;28;20054;-70
2022/08/11 17:39:12;;;;;;;;;;;42.30;64.20;;;;;;5082149;28;20035;-68
2022/08/11 17:50:03;;;;;;;;;;;41.90;65.10;;;;;;5086966;28;19920;-69
2022/08/11 18:00:44;;;;;;;;;;;41.10;65.70;;;;;;5083126;28;19924;-70
2022/08/11 18:03:31;;;;;;;;;;;40.80;65.60;;;;;;5092373;28;20015;-69
2022/08/11 18:05:59;;;;;;;;;;;40.40;66.50;;;;;;5092433;28;19931;-69
